createdAt,value
2024-04-21T00:01:39.170Z,2.97
2024-04-21T00:04:06.223Z,2.88
2024-04-21T00:06:33.191Z,2.83
2024-04-21T00:09:00.074Z,2.77
2024-04-21T00:11:26.981Z,2.75
2024-04-21T00:13:53.900Z,2.69
2024-04-21T00:16:21.130Z,2.71
2024-04-21T00:18:48.081Z,2.63
2024-04-21T00:21:15.213Z,2.68
2024-04-21T00:23:42.300Z,2.64
2024-04-21T00:26:09.199Z,2.62
2024-04-21T00:28:36.112Z,2.53
2024-04-21T00:31:03.135Z,2.54
2024-04-21T00:33:30.312Z,2.50
2024-04-21T00:35:57.256Z,2.54
2024-04-21T00:38:24.135Z,2.51
2024-04-21T00:40:51.052Z,2.52
2024-04-21T00:43:18.052Z,2.49
2024-04-21T00:45:48.546Z,2.48
2024-04-21T00:48:16.288Z,2.45
2024-04-21T00:50:56.510Z,2.43
2024-04-21T00:53:24.812Z,2.42
2024-04-21T00:55:56.084Z,2.40
2024-04-21T00:58:24.425Z,2.40
2024-04-21T01:00:52.034Z,2.37
2024-04-21T01:03:19.520Z,2.32
2024-04-21T01:05:47.217Z,2.30
2024-04-21T01:08:14.755Z,2.23
2024-04-21T01:10:41.699Z,2.21
2024-04-21T01:13:14.846Z,2.21
2024-04-21T01:15:41.862Z,2.16
2024-04-21T01:21:03.560Z,2.16
2024-04-21T01:23:30.584Z,2.00
2024-04-21T01:25:57.706Z,2.04
2024-04-21T01:28:24.977Z,2.12
2024-04-21T01:30:51.880Z,2.10
2024-04-21T01:33:18.862Z,2.03
2024-04-21T01:35:47.666Z,2.08
2024-04-21T01:38:14.503Z,2.08
2024-04-21T01:40:41.604Z,2.01
2024-04-21T01:43:08.589Z,1.99
2024-04-21T01:45:35.929Z,1.96
2024-04-21T01:48:03.868Z,1.96
2024-04-21T01:50:30.865Z,1.96
2024-04-21T01:52:57.780Z,1.96
2024-04-21T01:55:24.755Z,1.92
2024-04-21T01:57:54.267Z,1.90
2024-04-21T02:00:21.359Z,1.87
2024-04-21T02:02:48.251Z,1.83
2024-04-21T02:05:16.016Z,1.80
2024-04-21T02:07:42.905Z,1.81
2024-04-21T02:10:10.090Z,1.67
2024-04-21T02:12:37.052Z,1.74
2024-04-21T02:15:05.030Z,1.77
2024-04-21T02:17:32.025Z,1.76
2024-04-21T02:19:58.893Z,1.69
2024-04-21T02:22:26.094Z,1.71
2024-04-21T02:24:53.105Z,1.69
2024-04-21T02:27:20.072Z,1.69
2024-04-21T02:29:47.116Z,1.63
2024-04-21T02:32:14.110Z,1.66
2024-04-21T02:34:41.002Z,1.63
2024-04-21T02:37:08.131Z,1.61
2024-04-21T02:39:35.121Z,1.63
2024-04-21T02:42:02.074Z,1.61
2024-04-21T02:44:29.032Z,1.56
2024-04-21T02:46:56.162Z,1.57
2024-04-21T02:49:23.182Z,1.59
2024-04-21T02:51:50.143Z,1.56
2024-04-21T02:54:17.301Z,1.56
2024-04-21T02:56:44.205Z,1.43
2024-04-21T02:59:11.065Z,1.51
2024-04-21T03:01:38.207Z,1.47
2024-04-21T03:04:05.402Z,1.47
2024-04-21T03:06:32.399Z,1.46
2024-04-21T03:08:59.434Z,1.43
2024-04-21T03:11:26.665Z,1.42
2024-04-21T03:13:53.711Z,1.39
2024-04-21T03:16:20.786Z,1.35
2024-04-21T03:18:47.813Z,1.35
2024-04-21T03:21:14.942Z,1.32
2024-04-21T03:23:41.800Z,1.33
2024-04-21T03:26:08.792Z,1.27
2024-04-21T03:28:35.828Z,1.27
2024-04-21T03:31:02.849Z,1.30
2024-04-21T03:33:30.021Z,1.29
2024-04-21T03:36:09.916Z,1.24
2024-04-21T03:38:38.346Z,1.27
2024-04-21T03:41:06.308Z,1.22
2024-04-21T03:43:33.350Z,1.21
2024-04-21T03:46:00.352Z,1.19
2024-04-21T03:48:27.504Z,1.24
2024-04-21T03:50:54.720Z,1.26
2024-04-21T03:53:23.219Z,1.28
2024-04-21T03:55:50.611Z,1.24
2024-04-21T03:58:17.775Z,1.30
2024-04-21T04:00:48.967Z,1.33
2024-04-21T04:03:16.969Z,1.32
2024-04-21T04:05:47.618Z,1.32
2024-04-21T04:08:14.535Z,1.31
2024-04-21T04:10:43.646Z,1.37
2024-04-21T04:13:10.986Z,1.37
2024-04-21T04:15:38.690Z,1.37
2024-04-21T04:18:05.764Z,1.38
2024-04-21T04:20:35.164Z,1.45
2024-04-21T04:23:03.497Z,1.46
2024-04-21T04:25:30.392Z,1.49
2024-04-21T04:27:57.801Z,1.51
2024-04-21T04:30:24.756Z,1.50
2024-04-21T04:32:51.697Z,1.42
2024-04-21T04:35:18.690Z,1.54
2024-04-21T04:37:45.664Z,1.46
2024-04-21T04:40:12.960Z,1.56
2024-04-21T04:42:39.907Z,1.58
2024-04-21T04:45:07.272Z,1.62
2024-04-21T04:47:34.267Z,1.67
2024-04-21T04:50:01.286Z,1.71
2024-04-21T04:52:28.226Z,1.74
2024-04-21T04:54:55.207Z,1.75
2024-04-21T04:57:22.867Z,1.76
2024-04-21T04:59:49.765Z,1.83
2024-04-21T05:02:16.676Z,1.82
2024-04-21T05:04:43.945Z,1.86
2024-04-21T05:07:14.191Z,1.93
2024-04-21T05:09:41.614Z,1.96
2024-04-21T05:12:08.820Z,1.98
2024-04-21T05:14:35.705Z,2.04
2024-04-21T05:17:03.077Z,2.11
2024-04-21T05:19:30.081Z,2.13
2024-04-21T05:21:57.300Z,2.21
2024-04-21T05:24:24.221Z,2.21
2024-04-21T05:26:51.325Z,2.28
2024-04-21T05:29:18.232Z,2.33
2024-04-21T05:31:45.187Z,2.38
2024-04-21T05:34:13.447Z,2.41
2024-04-21T05:36:40.355Z,2.47
2024-04-21T05:39:07.494Z,2.51
2024-04-21T05:41:34.458Z,2.58
2024-04-21T05:44:02.039Z,2.64
2024-04-21T05:46:28.911Z,2.70
2024-04-21T05:48:55.887Z,2.76
2024-04-21T05:51:22.851Z,2.84
2024-04-21T05:53:49.726Z,2.92
2024-04-21T05:56:17.550Z,2.96
2024-04-21T05:58:44.486Z,3.07
2024-04-21T06:01:11.599Z,3.16
2024-04-21T06:03:38.894Z,3.23
2024-04-21T06:06:07.883Z,3.36
2024-04-21T06:08:35.397Z,3.44
2024-04-21T06:11:02.611Z,3.60
2024-04-21T06:13:29.786Z,3.66
2024-04-21T06:15:56.746Z,3.79
2024-04-21T06:18:23.953Z,3.91
2024-04-21T06:20:50.983Z,4.00
2024-04-21T06:23:19.280Z,4.13
2024-04-21T06:25:46.147Z,4.31
2024-04-21T06:28:13.230Z,4.32
2024-04-21T06:30:42.347Z,4.60
2024-04-21T06:33:09.603Z,4.72
2024-04-21T06:35:36.566Z,4.83
2024-04-21T06:38:03.708Z,4.97
2024-04-21T06:40:31.460Z,5.15
2024-04-21T06:42:58.637Z,5.31
2024-04-21T06:45:25.593Z,5.50
2024-04-21T06:47:52.648Z,5.75
2024-04-21T06:50:19.651Z,5.98
2024-04-21T06:52:46.617Z,6.24
2024-04-21T06:55:13.520Z,6.49
2024-04-21T06:57:42.369Z,6.84
2024-04-21T07:00:09.815Z,7.09
2024-04-21T07:02:36.863Z,7.29
2024-04-21T07:05:04.782Z,7.64
2024-04-21T07:07:31.715Z,7.89
2024-04-21T07:09:58.863Z,8.14
2024-04-21T07:12:25.836Z,8.54
2024-04-21T07:14:52.767Z,8.88
2024-04-21T07:17:19.652Z,9.21
2024-04-21T07:19:46.587Z,9.48
2024-04-21T07:22:13.619Z,9.85
2024-04-21T07:24:40.697Z,10.13
2024-04-21T07:27:07.578Z,10.35
2024-04-21T07:29:34.599Z,10.56
2024-04-21T07:32:02.157Z,10.77
2024-04-21T07:34:29.746Z,10.91
2024-04-21T07:36:56.776Z,10.95
2024-04-21T07:39:23.905Z,11.16
2024-04-21T07:41:50.834Z,11.43
2024-04-21T07:44:17.798Z,11.60
2024-04-21T07:46:44.704Z,11.65
2024-04-21T07:49:11.894Z,11.65
2024-04-21T07:51:38.936Z,11.83
2024-04-21T07:54:07.897Z,12.09
2024-04-21T07:56:34.802Z,12.36
2024-04-21T07:59:01.788Z,12.54
2024-04-21T08:01:28.939Z,12.66
2024-04-21T08:03:55.876Z,12.69
2024-04-21T08:06:23.636Z,12.67
2024-04-21T08:08:57.328Z,12.63
2024-04-21T08:11:27.919Z,12.47
2024-04-21T08:13:55.007Z,12.42
2024-04-21T08:16:21.942Z,12.52
2024-04-21T08:18:49.148Z,12.67
2024-04-21T08:21:19.218Z,12.75
2024-04-21T08:23:46.138Z,12.85
2024-04-21T08:26:12.987Z,12.89
2024-04-21T08:28:39.927Z,12.99
2024-04-21T08:31:06.894Z,13.07
2024-04-21T08:33:33.880Z,13.21
2024-04-21T08:36:00.907Z,13.38
2024-04-21T08:38:29.567Z,13.34
2024-04-21T08:40:57.437Z,13.25
2024-04-21T08:43:26.208Z,13.31
2024-04-21T08:45:57.325Z,13.36
2024-04-21T08:48:27.150Z,13.63
2024-04-21T08:50:54.382Z,13.78
2024-04-21T08:53:21.414Z,13.89
2024-04-21T08:55:50.330Z,14.12
2024-04-21T08:58:18.342Z,14.06
2024-04-21T09:00:47.006Z,14.18
2024-04-21T09:03:17.808Z,14.33
2024-04-21T09:05:51.107Z,14.48
2024-04-21T09:08:18.082Z,14.71
2024-04-21T09:10:45.114Z,14.88
2024-04-21T09:13:12.304Z,15.12
2024-04-21T09:15:40.216Z,15.31
2024-04-21T09:18:08.275Z,15.37
2024-04-21T09:20:38.323Z,15.34
2024-04-21T09:23:08.533Z,15.48
2024-04-21T09:25:37.597Z,15.63
2024-04-21T09:28:05.546Z,15.73
2024-04-21T09:30:32.552Z,15.74
2024-04-21T09:33:00.043Z,15.79
2024-04-21T09:35:27.229Z,15.85
2024-04-21T09:37:54.812Z,15.90
2024-04-21T09:40:23.357Z,15.96
2024-04-21T09:42:51.400Z,16.07
2024-04-21T09:45:21.822Z,16.13
2024-04-21T09:47:49.614Z,16.10
2024-04-21T09:50:17.557Z,15.98
2024-04-21T09:52:48.660Z,16.10
2024-04-21T09:55:16.157Z,16.11
2024-04-21T09:57:44.990Z,16.28
2024-04-21T10:00:16.669Z,16.40
2024-04-21T10:02:48.742Z,16.56
2024-04-21T10:05:20.024Z,16.59
2024-04-21T10:07:51.478Z,16.39
2024-04-21T10:10:23.704Z,16.40
2024-04-21T10:12:51.298Z,16.58
2024-04-21T10:15:25.246Z,16.63
2024-04-21T10:17:56.538Z,16.34
2024-04-21T10:20:37.742Z,16.24
2024-04-21T10:23:11.151Z,16.31
2024-04-21T10:25:40.485Z,16.58
2024-04-21T10:28:08.218Z,16.69
2024-04-21T10:30:37.178Z,16.79
2024-04-21T10:33:15.238Z,16.69
2024-04-21T10:35:43.577Z,16.74
2024-04-21T10:38:16.463Z,16.86
2024-04-21T10:40:48.772Z,16.97
2024-04-21T10:43:17.328Z,17.09
2024-04-21T10:45:47.016Z,17.08
2024-04-21T10:48:14.065Z,17.02
2024-04-21T10:50:43.141Z,17.03
2024-04-21T10:53:10.549Z,17.24
2024-04-21T10:55:37.653Z,17.19
2024-04-21T10:58:05.594Z,17.01
2024-04-21T11:00:34.483Z,17.14
2024-04-21T11:03:01.750Z,17.37
2024-04-21T11:05:57.431Z,17.52
2024-04-21T11:08:25.139Z,17.62
2024-04-21T11:10:54.648Z,17.61
2024-04-21T11:13:22.746Z,17.04
2024-04-21T11:15:50.149Z,16.83
2024-04-21T11:18:17.904Z,16.80
2024-04-21T11:20:46.165Z,17.00
2024-04-21T11:23:17.797Z,17.18
2024-04-21T11:25:48.136Z,17.19
2024-04-21T11:28:17.910Z,17.39
2024-04-21T11:30:44.956Z,17.54
2024-04-21T11:33:12.262Z,17.65
2024-04-21T11:35:40.085Z,17.92
2024-04-21T11:38:07.610Z,17.95
2024-04-21T11:40:41.139Z,17.61
2024-04-21T11:43:11.448Z,17.48
2024-04-21T11:45:40.561Z,17.56
2024-04-21T11:48:09.119Z,17.71
2024-04-21T11:50:39.127Z,17.84
2024-04-21T11:53:06.642Z,17.92
2024-04-21T11:55:34.083Z,17.99
2024-04-21T11:58:01.488Z,18.04
2024-04-21T12:00:28.511Z,18.14
2024-04-21T12:02:55.570Z,18.37
2024-04-21T12:05:23.719Z,18.56
2024-04-21T12:07:51.175Z,18.69
2024-04-21T12:10:18.203Z,18.80
2024-04-21T12:12:45.205Z,18.62
2024-04-21T12:15:12.129Z,18.55
2024-04-21T12:17:39.205Z,18.36
2024-04-21T12:20:07.054Z,18.28
2024-04-21T12:22:34.022Z,18.29
2024-04-21T12:25:01.205Z,18.39
2024-04-21T12:27:28.093Z,18.52
2024-04-21T12:29:55.184Z,18.55
2024-04-21T12:32:22.333Z,18.58
2024-04-21T12:34:49.341Z,18.62
2024-04-21T12:37:16.529Z,18.62
2024-04-21T12:39:43.759Z,18.71
2024-04-21T12:42:10.918Z,18.67
2024-04-21T12:44:37.850Z,18.65
2024-04-21T12:47:05.106Z,18.27
2024-04-21T12:49:32.062Z,18.02
2024-04-21T12:51:59.120Z,18.02
2024-04-21T12:54:26.374Z,18.11
2024-04-21T12:56:53.285Z,18.19
2024-04-21T12:59:22.491Z,18.34
2024-04-21T13:01:49.726Z,18.38
2024-04-21T13:04:16.882Z,18.47
2024-04-21T13:06:43.770Z,18.46
2024-04-21T13:09:11.245Z,18.57
2024-04-21T13:11:38.314Z,18.55
2024-04-21T13:14:05.208Z,18.56
2024-04-21T13:16:32.702Z,18.52
2024-04-21T13:18:59.744Z,18.57
2024-04-21T13:21:27.398Z,18.45
2024-04-21T13:23:54.671Z,18.43
2024-04-21T13:26:21.958Z,18.44
2024-04-21T13:28:49.103Z,18.43
2024-04-21T13:31:16.105Z,18.40
2024-04-21T13:33:43.107Z,18.21
2024-04-21T13:36:15.150Z,18.17
2024-04-21T13:38:47.674Z,18.24
2024-04-21T13:41:14.619Z,18.22
2024-04-21T13:43:41.822Z,18.21
2024-04-21T13:46:08.824Z,18.16
2024-04-21T13:48:36.673Z,18.07
2024-04-21T13:51:16.925Z,18.00
2024-04-21T13:53:51.635Z,17.96
2024-04-21T13:56:18.541Z,17.98
2024-04-21T13:58:45.561Z,17.94
2024-04-21T14:01:12.824Z,17.83
2024-04-21T14:03:39.750Z,17.85
2024-04-21T14:06:07.013Z,17.83
2024-04-21T14:08:34.005Z,17.68
2024-04-21T14:11:01.104Z,17.50
2024-04-21T14:13:29.167Z,17.41
2024-04-21T14:15:56.256Z,17.34
2024-04-21T14:18:23.801Z,17.28
2024-04-21T14:20:51.111Z,17.15
2024-04-21T14:23:18.181Z,17.18
2024-04-21T14:25:45.178Z,17.15
2024-04-21T14:28:12.384Z,17.18
2024-04-21T14:30:39.315Z,17.29
2024-04-21T14:33:06.634Z,17.26
2024-04-21T14:35:33.581Z,17.13
2024-04-21T14:38:00.543Z,17.10
2024-04-21T14:40:27.437Z,17.17
2024-04-21T14:42:54.361Z,17.21
2024-04-21T14:45:21.517Z,17.28
2024-04-21T14:47:55.808Z,17.36
2024-04-21T14:50:23.140Z,17.38
2024-04-21T14:52:50.354Z,17.48
2024-04-21T14:55:17.489Z,17.50
2024-04-21T14:57:47.729Z,17.52
2024-04-21T15:00:15.485Z,17.53
2024-04-21T15:02:42.755Z,17.52
2024-04-21T15:05:09.814Z,17.47
2024-04-21T15:07:37.559Z,17.39
2024-04-21T15:10:07.625Z,17.30
2024-04-21T15:12:34.642Z,17.26
2024-04-21T15:15:01.686Z,17.28
2024-04-21T15:17:28.564Z,17.26
2024-04-21T15:19:56.133Z,17.24
2024-04-21T15:22:25.818Z,17.20
2024-04-21T15:24:54.533Z,17.11
2024-04-21T15:27:21.503Z,17.08
2024-04-21T15:29:48.506Z,17.07
2024-04-21T15:32:15.367Z,17.05
2024-04-21T15:34:42.907Z,16.99
2024-04-21T15:37:09.866Z,16.93
2024-04-21T15:39:36.919Z,16.89
2024-04-21T15:42:06.433Z,16.79
2024-04-21T15:44:33.385Z,16.69
2024-04-21T15:47:00.378Z,16.63
2024-04-21T15:49:27.529Z,16.50
2024-04-21T15:51:55.542Z,16.38
2024-04-21T15:54:22.698Z,16.17
2024-04-21T15:56:49.808Z,16.06
2024-04-21T15:59:16.780Z,15.99
2024-04-21T16:01:43.861Z,15.88
2024-04-21T16:04:11.098Z,15.84
2024-04-21T16:06:38.133Z,15.69
2024-04-21T16:09:06.720Z,15.50
2024-04-21T16:11:33.825Z,15.32
2024-04-21T16:14:00.785Z,15.20
2024-04-21T16:16:28.724Z,15.02
2024-04-21T16:18:55.728Z,14.84
2024-04-21T16:21:22.978Z,14.70
2024-04-21T16:23:49.934Z,14.51
2024-04-21T16:26:18.100Z,14.47
2024-04-21T16:28:45.410Z,14.41
2024-04-21T16:31:13.085Z,14.27
2024-04-21T16:33:40.426Z,14.06
2024-04-21T16:36:08.546Z,14.04
2024-04-21T16:38:38.493Z,13.85
2024-04-21T16:41:05.786Z,13.76
2024-04-21T16:43:35.111Z,13.68
2024-04-21T16:46:06.947Z,13.55
2024-04-21T16:48:34.374Z,13.39
2024-04-21T16:51:01.791Z,13.11
2024-04-21T16:53:29.249Z,13.03
2024-04-21T16:55:57.164Z,12.90
2024-04-21T16:58:32.735Z,12.87
2024-04-21T17:01:02.908Z,12.71
2024-04-21T17:03:33.831Z,12.54
2024-04-21T17:06:03.012Z,12.33
2024-04-21T17:08:39.295Z,12.27
2024-04-21T17:11:06.589Z,12.06
2024-04-21T17:13:34.427Z,11.97
2024-04-21T17:16:02.799Z,11.76
2024-04-21T17:18:30.808Z,11.73
2024-04-21T17:20:57.715Z,11.57
2024-04-21T17:23:24.658Z,11.41
2024-04-21T17:25:51.538Z,11.23
2024-04-21T17:28:18.470Z,11.11
2024-04-21T17:30:45.515Z,10.99
2024-04-21T17:33:12.649Z,10.88
2024-04-21T17:35:39.722Z,10.77
2024-04-21T17:38:06.764Z,10.71
2024-04-21T17:40:33.932Z,10.59
2024-04-21T17:43:00.917Z,10.42
2024-04-21T17:45:31.422Z,10.35
2024-04-21T17:47:59.993Z,10.24
2024-04-21T17:50:27.145Z,10.25
2024-04-21T17:52:54.594Z,10.12
2024-04-21T17:55:21.487Z,10.01
2024-04-21T17:57:48.408Z,9.90
2024-04-21T18:00:15.466Z,9.80
2024-04-21T18:02:42.514Z,9.77
2024-04-21T18:05:10.403Z,9.58
2024-04-21T18:07:39.188Z,9.57
2024-04-21T18:10:08.482Z,9.36
2024-04-21T18:12:35.619Z,9.29
2024-04-21T18:15:04.573Z,9.27
2024-04-21T18:17:31.659Z,9.18
2024-04-21T18:19:58.693Z,8.98
2024-04-21T18:22:25.721Z,8.99
2024-04-21T18:24:52.642Z,8.89
2024-04-21T18:27:19.688Z,8.88
2024-04-21T18:29:46.591Z,8.71
2024-04-21T18:32:13.955Z,8.74
2024-04-21T18:34:41.450Z,8.59
2024-04-21T18:37:08.331Z,8.57
2024-04-21T18:39:35.248Z,8.52
2024-04-21T18:42:03.280Z,8.33
2024-04-21T18:44:30.567Z,8.20
2024-04-21T18:46:57.919Z,8.14
2024-04-21T18:49:25.932Z,8.06
2024-04-21T18:51:52.970Z,8.06
2024-04-21T18:54:22.369Z,8.03
2024-04-21T18:56:49.488Z,7.89
2024-04-21T18:59:16.413Z,7.85
2024-04-21T19:01:43.622Z,7.74
2024-04-21T19:04:10.616Z,7.68
2024-04-21T19:06:37.746Z,7.56
2024-04-21T19:09:04.916Z,7.64
2024-04-21T19:11:33.132Z,7.51
2024-04-21T19:14:00.288Z,7.52
2024-04-21T19:16:31.440Z,7.25
2024-04-21T19:18:58.920Z,7.33
2024-04-21T19:21:26.156Z,7.30
2024-04-21T19:23:53.395Z,7.23
2024-04-21T19:26:20.354Z,7.23
2024-04-21T19:28:48.777Z,7.11
2024-04-21T19:31:16.630Z,6.94
2024-04-21T19:33:44.420Z,7.00
2024-04-21T19:36:11.283Z,6.89
2024-04-21T19:38:38.179Z,6.88
2024-04-21T19:41:05.075Z,6.82
2024-04-21T19:43:32.132Z,6.76
2024-04-21T19:46:02.552Z,6.74
2024-04-21T19:48:29.618Z,6.69
2024-04-21T19:51:00.595Z,6.63
2024-04-21T19:53:28.227Z,6.57
2024-04-21T19:55:55.394Z,6.55
2024-04-21T19:58:22.341Z,6.42
2024-04-21T20:00:52.363Z,6.43
2024-04-21T20:03:19.407Z,6.35
2024-04-21T20:05:46.352Z,6.36
2024-04-21T20:08:17.638Z,6.30
2024-04-21T20:10:44.743Z,6.23
2024-04-21T20:13:11.964Z,6.23
2024-04-21T20:15:57.329Z,6.17
2024-04-21T20:18:36.570Z,6.15
2024-04-21T20:21:05.130Z,6.12
2024-04-21T20:23:32.727Z,6.11
2024-04-21T20:26:04.743Z,6.05
2024-04-21T20:28:31.917Z,5.97
2024-04-21T20:30:58.857Z,5.97
2024-04-21T20:33:26.426Z,5.88
2024-04-21T20:35:53.503Z,5.87
2024-04-21T20:38:20.430Z,5.79
2024-04-21T20:40:48.503Z,5.81
2024-04-21T20:43:15.514Z,5.75
2024-04-21T20:45:42.449Z,5.75
2024-04-21T20:48:09.514Z,5.74
2024-04-21T20:50:36.646Z,5.67
2024-04-21T20:53:03.837Z,5.62
2024-04-21T20:55:30.830Z,5.58
2024-04-21T20:57:57.871Z,5.49
2024-04-21T21:00:25.006Z,5.47
2024-04-21T21:02:52.120Z,5.47
2024-04-21T21:05:19.117Z,5.42
2024-04-21T21:07:46.043Z,5.34
2024-04-21T21:10:13.144Z,5.31
2024-04-21T21:12:40.007Z,5.33
2024-04-21T21:15:07.598Z,5.29
2024-04-21T21:17:37.774Z,5.33
2024-04-21T21:20:05.823Z,5.31
2024-04-21T21:22:32.758Z,5.27
2024-04-21T21:24:59.707Z,5.23
2024-04-21T21:27:26.700Z,5.18
2024-04-21T21:29:53.883Z,5.16
2024-04-21T21:32:20.925Z,5.14
2024-04-21T21:34:47.871Z,5.22
2024-04-21T21:37:15.069Z,5.25
2024-04-21T21:39:42.115Z,5.26
2024-04-21T21:42:09.250Z,5.32
2024-04-21T21:44:36.467Z,5.34
2024-04-21T21:47:03.370Z,5.42
2024-04-21T21:49:30.329Z,5.44
2024-04-21T21:51:57.650Z,5.45
2024-04-21T21:54:27.395Z,5.50
2024-04-21T21:56:54.507Z,5.57
2024-04-21T21:59:25.149Z,5.60
2024-04-21T22:01:52.386Z,5.57
2024-04-21T22:04:19.328Z,5.57
2024-04-21T22:06:47.271Z,5.58
2024-04-21T22:09:14.244Z,5.67
2024-04-21T22:11:41.145Z,5.68
2024-04-21T22:14:10.081Z,5.68
2024-04-21T22:16:37.365Z,5.72
2024-04-21T22:19:04.477Z,5.72
2024-04-21T22:21:31.389Z,5.66
2024-04-21T22:23:58.246Z,5.67
2024-04-21T22:26:25.521Z,5.65
2024-04-21T22:28:52.443Z,5.74
2024-04-21T22:31:20.130Z,5.77
2024-04-21T22:33:47.407Z,5.77
2024-04-21T22:36:14.401Z,5.80
2024-04-21T22:38:41.496Z,5.77
2024-04-21T22:41:08.472Z,5.78
2024-04-21T22:43:36.100Z,5.72
2024-04-21T22:46:08.027Z,5.77
2024-04-21T22:48:37.062Z,5.80
2024-04-21T22:51:05.894Z,5.81
2024-04-21T22:53:33.040Z,5.85
2024-04-21T22:56:00.240Z,5.87
2024-04-21T22:58:27.470Z,5.89
2024-04-21T23:00:54.636Z,5.95
2024-04-21T23:03:21.748Z,5.97
2024-04-21T23:05:48.784Z,5.99
2024-04-21T23:08:15.888Z,5.94
2024-04-21T23:10:43.049Z,5.98
2024-04-21T23:13:10.472Z,6.02
2024-04-21T23:15:37.482Z,6.01
2024-04-21T23:18:04.989Z,6.03
2024-04-21T23:20:33.492Z,6.05
2024-04-21T23:23:01.661Z,6.03
2024-04-21T23:25:28.591Z,6.07
2024-04-21T23:27:55.622Z,6.05
2024-04-21T23:30:22.755Z,6.09
2024-04-21T23:32:49.881Z,6.10
2024-04-21T23:35:16.941Z,6.07
2024-04-21T23:37:44.129Z,6.07
2024-04-21T23:40:11.198Z,6.08
2024-04-21T23:42:38.217Z,6.04
2024-04-21T23:45:09.251Z,6.09
2024-04-21T23:47:36.768Z,6.09
2024-04-21T23:50:07.713Z,6.05
2024-04-21T23:52:34.606Z,5.96
2024-04-21T23:55:01.545Z,6.00
2024-04-21T23:57:28.430Z,5.97
2024-04-21T23:59:55.720Z,6.01
